createdAt,value
2023-01-25T00:00:31.211Z,27.38
2023-01-25T00:02:58.888Z,26.50
2023-01-25T00:05:26.164Z,26.75
2023-01-25T00:07:53.510Z,27.20
2023-01-25T00:10:24.139Z,25.52
2023-01-25T00:12:51.415Z,27.35
2023-01-25T00:15:18.708Z,27.95
2023-01-25T00:17:46.146Z,25.95
2023-01-25T00:20:13.422Z,26.27
2023-01-25T00:22:41.135Z,26.30
2023-01-25T00:25:09.001Z,23.88
2023-01-25T00:27:36.492Z,25.95
2023-01-25T00:30:04.472Z,27.48
2023-01-25T00:33:02.532Z,24.35
2023-01-25T00:38:02.630Z,25.85
2023-01-25T00:40:30.073Z,26.63
2023-01-25T00:43:00.787Z,27.13
2023-01-25T00:45:28.166Z,28.70
2023-01-25T00:47:56.411Z,28.30
2023-01-25T00:50:24.000Z,28.67
2023-01-25T00:52:51.259Z,29.63
2023-01-25T00:55:18.769Z,32.70
2023-01-25T00:57:48.990Z,29.45
2023-01-25T01:00:16.883Z,31.45
2023-01-25T01:02:44.210Z,28.40
2023-01-25T01:05:11.905Z,29.00
2023-01-25T01:07:39.832Z,31.00
2023-01-25T01:10:07.731Z,30.20
2023-01-25T01:12:35.020Z,30.23
2023-01-25T01:15:02.398Z,31.67
2023-01-25T01:17:29.670Z,32.15
2023-01-25T01:19:56.943Z,31.58
2023-01-25T01:22:24.678Z,32.05
2023-01-25T01:24:52.478Z,29.83
2023-01-25T01:27:19.645Z,32.60
2023-01-25T01:29:47.036Z,31.02
2023-01-25T01:32:14.406Z,31.23
2023-01-25T01:34:42.254Z,32.03
2023-01-25T01:37:09.482Z,30.92
2023-01-25T01:39:37.206Z,31.67
2023-01-25T01:42:04.606Z,31.67
2023-01-25T01:44:46.251Z,30.40
2023-01-25T01:47:45.849Z,31.65
2023-01-25T01:50:22.628Z,31.13
2023-01-25T01:52:51.960Z,29.90
2023-01-25T01:55:24.087Z,31.10
2023-01-25T01:57:58.800Z,29.23
2023-01-25T02:00:31.657Z,28.77
2023-01-25T02:03:01.694Z,28.95
2023-01-25T02:05:51.212Z,31.40
2023-01-25T02:08:19.762Z,30.73
2023-01-25T02:10:48.264Z,28.02
2023-01-25T02:13:16.599Z,29.63
2023-01-25T02:15:52.423Z,29.77
2023-01-25T02:18:20.290Z,29.60
2023-01-25T02:20:50.747Z,28.77
2023-01-25T02:23:43.291Z,28.83
2023-01-25T02:26:11.119Z,31.05
2023-01-25T02:28:53.065Z,31.17
2023-01-25T02:31:24.657Z,28.88
2023-01-25T02:33:52.979Z,28.60
2023-01-25T02:36:24.657Z,30.48
2023-01-25T02:38:59.433Z,29.73
2023-01-25T02:41:41.082Z,30.27
2023-01-25T02:44:20.008Z,32.00
2023-01-25T02:46:47.944Z,29.27
2023-01-25T02:49:16.221Z,27.33
2023-01-25T02:51:46.890Z,27.67
2023-01-25T02:54:15.587Z,30.52
2023-01-25T02:56:43.240Z,27.65
2023-01-25T02:59:13.406Z,28.70
2023-01-25T03:01:43.931Z,31.17
2023-01-25T03:04:12.187Z,29.63
2023-01-25T03:06:40.095Z,29.40
2023-01-25T03:09:10.211Z,30.35
2023-01-25T03:11:39.795Z,29.95
2023-01-25T03:14:07.215Z,29.38
2023-01-25T03:16:34.582Z,29.52
2023-01-25T03:19:02.853Z,29.27
2023-01-25T03:21:30.240Z,30.17
2023-01-25T03:24:01.332Z,27.90
2023-01-25T03:26:58.785Z,30.27
2023-01-25T03:29:37.945Z,27.52
2023-01-25T03:32:11.415Z,28.33
2023-01-25T03:34:38.819Z,28.77
2023-01-25T03:37:06.353Z,28.15
2023-01-25T03:39:35.496Z,29.30
2023-01-25T03:42:02.843Z,28.17
2023-01-25T03:44:31.668Z,26.92
2023-01-25T03:46:59.470Z,29.48
2023-01-25T03:49:27.969Z,29.25
2023-01-25T03:51:55.418Z,30.88
2023-01-25T03:54:28.993Z,29.08
2023-01-25T03:56:56.435Z,30.52
2023-01-25T03:59:26.330Z,32.70
2023-01-25T04:01:55.792Z,32.17
2023-01-25T04:04:23.573Z,30.88
2023-01-25T04:06:51.384Z,30.92
2023-01-25T04:09:19.023Z,32.00
2023-01-25T04:11:51.888Z,30.23
2023-01-25T04:14:31.769Z,33.28
2023-01-25T04:17:08.285Z,26.65
2023-01-25T04:19:59.722Z,33.55
2023-01-25T04:22:34.298Z,33.42
2023-01-25T04:25:03.367Z,33.45
2023-01-25T04:27:30.814Z,34.72
2023-01-25T04:30:04.970Z,33.03
2023-01-25T04:32:36.757Z,32.83
2023-01-25T04:35:09.436Z,32.72
2023-01-25T04:37:37.031Z,34.60
2023-01-25T04:40:05.669Z,36.05
2023-01-25T04:42:38.809Z,32.53
2023-01-25T04:45:07.209Z,31.50
2023-01-25T04:47:35.842Z,32.50
2023-01-25T04:50:04.274Z,33.65
2023-01-25T04:52:33.125Z,32.78
2023-01-25T04:55:01.298Z,31.25
2023-01-25T04:57:32.151Z,31.80
2023-01-25T04:59:59.903Z,33.35
2023-01-25T05:02:30.103Z,36.80
2023-01-25T05:04:57.529Z,36.20
2023-01-25T05:07:24.955Z,34.30
2023-01-25T05:09:53.729Z,32.65
2023-01-25T05:12:24.086Z,34.35
2023-01-25T05:15:02.259Z,34.90
2023-01-25T05:17:29.962Z,31.77
2023-01-25T05:19:57.380Z,36.83
2023-01-25T05:22:25.691Z,35.38
2023-01-25T05:24:54.398Z,34.28
2023-01-25T05:27:22.777Z,34.97
2023-01-25T05:32:57.567Z,31.50
2023-01-25T05:35:25.359Z,28.38
2023-01-25T05:37:59.356Z,35.97
2023-01-25T05:40:27.842Z,34.25
2023-01-25T05:42:59.953Z,31.90
2023-01-25T05:45:30.188Z,33.35
2023-01-25T05:47:58.791Z,31.08
2023-01-25T05:50:27.149Z,35.60
2023-01-25T05:53:14.694Z,36.88
2023-01-25T05:55:42.248Z,36.90
2023-01-25T05:58:14.017Z,33.55
2023-01-25T06:00:42.074Z,35.60
2023-01-25T06:03:21.811Z,36.13
2023-01-25T06:05:58.783Z,39.63
2023-01-25T06:08:26.599Z,28.23
2023-01-25T06:10:55.088Z,35.45
2023-01-25T06:13:24.856Z,36.03
2023-01-25T06:15:57.371Z,39.00
2023-01-25T06:18:43.972Z,37.85
2023-01-25T06:21:29.935Z,35.55
2023-01-25T06:23:57.281Z,32.13
2023-01-25T06:26:24.551Z,31.70
2023-01-25T06:28:55.140Z,34.75
2023-01-25T06:31:23.009Z,37.28
2023-01-25T06:33:52.154Z,38.72
2023-01-25T06:36:22.728Z,33.67
2023-01-25T06:38:51.385Z,33.63
2023-01-25T06:41:19.588Z,36.85
2023-01-25T06:43:49.967Z,34.80
2023-01-25T06:46:17.519Z,39.15
2023-01-25T06:48:45.030Z,35.03
2023-01-25T06:51:14.861Z,33.80
2023-01-25T06:53:45.862Z,31.52
2023-01-25T06:56:21.790Z,36.83
2023-01-25T06:58:50.579Z,40.03
2023-01-25T07:01:21.004Z,31.48
2023-01-25T07:03:53.505Z,39.45
2023-01-25T07:06:21.647Z,33.63
2023-01-25T07:08:49.344Z,36.45
2023-01-25T07:11:19.020Z,39.28
2023-01-25T07:13:47.879Z,40.03
2023-01-25T07:16:18.977Z,43.15
2023-01-25T07:18:46.558Z,29.73
2023-01-25T07:21:16.648Z,41.65
2023-01-25T07:23:44.885Z,40.47
2023-01-25T07:26:22.696Z,42.25
2023-01-25T07:28:50.771Z,34.75
2023-01-25T07:31:19.386Z,32.72
2023-01-25T07:33:54.240Z,35.22
2023-01-25T07:36:22.616Z,35.25
2023-01-25T07:38:53.634Z,36.20
2023-01-25T07:41:26.547Z,32.22
2023-01-25T07:43:54.452Z,38.95
2023-01-25T07:46:33.363Z,40.65
2023-01-25T07:49:00.769Z,38.28
2023-01-25T07:51:30.151Z,41.85
2023-01-25T07:53:59.904Z,38.00
2023-01-25T07:56:30.334Z,30.13
2023-01-25T07:58:59.684Z,39.88
2023-01-25T08:01:29.038Z,16.80
2023-01-25T08:03:57.305Z,25.88
2023-01-25T08:06:35.906Z,32.10
2023-01-25T08:09:09.708Z,31.10
2023-01-25T08:11:37.159Z,34.67
2023-01-25T08:14:04.580Z,28.20
2023-01-25T08:16:32.546Z,33.15
2023-01-25T08:19:02.029Z,38.67
2023-01-25T08:21:32.217Z,23.30
2023-01-25T08:24:00.899Z,31.40
2023-01-25T08:26:28.992Z,20.45
2023-01-25T08:28:57.182Z,24.88
2023-01-25T08:31:27.532Z,23.88
2023-01-25T08:33:58.624Z,31.73
2023-01-25T08:36:28.203Z,34.95
2023-01-25T08:38:58.028Z,26.90
2023-01-25T08:41:26.806Z,30.20
2023-01-25T08:43:55.484Z,29.10
2023-01-25T08:46:24.610Z,28.05
2023-01-25T08:48:56.578Z,25.85
2023-01-25T08:51:24.723Z,33.30
2023-01-25T08:53:52.045Z,30.90
2023-01-25T08:56:19.520Z,34.92
2023-01-25T08:58:48.781Z,35.13
2023-01-25T09:01:19.116Z,30.80
2023-01-25T09:03:50.233Z,32.90
2023-01-25T09:06:19.670Z,25.02
2023-01-25T09:08:47.627Z,37.22
2023-01-25T09:11:19.491Z,38.90
2023-01-25T09:13:48.781Z,23.80
2023-01-25T09:16:28.152Z,32.63
2023-01-25T09:18:58.041Z,32.88
2023-01-25T09:21:25.631Z,31.27
2023-01-25T09:24:09.692Z,35.88
2023-01-25T09:26:41.774Z,28.92
2023-01-25T09:29:11.540Z,29.42
2023-01-25T09:31:45.802Z,23.42
2023-01-25T09:34:16.104Z,31.58
2023-01-25T09:36:43.694Z,23.27
2023-01-25T09:39:14.502Z,28.88
2023-01-25T09:41:50.961Z,32.50
2023-01-25T09:44:42.116Z,36.92
2023-01-25T09:47:37.957Z,34.40
2023-01-25T09:50:24.345Z,22.33
2023-01-25T09:53:11.045Z,32.03
2023-01-25T09:55:39.320Z,33.85
2023-01-25T09:58:17.825Z,25.27
2023-01-25T10:00:50.321Z,28.58
2023-01-25T10:03:27.503Z,26.73
2023-01-25T10:05:59.987Z,32.45
2023-01-25T10:08:31.704Z,28.75
2023-01-25T10:11:15.008Z,22.35
2023-01-25T10:13:44.091Z,33.28
2023-01-25T10:16:25.985Z,30.70
2023-01-25T10:19:31.245Z,31.45
2023-01-25T10:22:15.300Z,26.83
2023-01-25T10:25:06.241Z,33.65
2023-01-25T10:27:59.693Z,38.08
2023-01-25T10:30:35.635Z,37.80
2023-01-25T10:33:11.825Z,34.08
2023-01-25T10:35:46.784Z,33.40
2023-01-25T10:38:28.388Z,27.30
2023-01-25T10:41:10.480Z,35.38
2023-01-25T10:43:38.906Z,32.45
2023-01-25T10:46:35.946Z,26.02
2023-01-25T10:49:20.701Z,29.65
2023-01-25T10:51:47.979Z,29.60
2023-01-25T10:54:16.547Z,30.13
2023-01-25T10:56:45.386Z,28.88
2023-01-25T10:59:27.022Z,28.05
2023-01-25T11:01:54.439Z,22.20
2023-01-25T11:04:31.633Z,29.65
2023-01-25T11:07:00.048Z,30.33
2023-01-25T11:09:38.965Z,28.75
2023-01-25T11:12:16.995Z,30.25
2023-01-25T11:14:44.689Z,29.77
2023-01-25T11:17:27.606Z,31.02
2023-01-25T11:20:19.521Z,27.02
2023-01-25T11:22:53.017Z,25.02
2023-01-25T11:25:32.585Z,27.15
2023-01-25T11:28:16.013Z,22.67
2023-01-25T11:30:44.001Z,21.58
2023-01-25T11:33:13.076Z,23.40
2023-01-25T11:36:04.694Z,23.60
2023-01-25T11:38:32.555Z,21.92
2023-01-25T11:41:20.992Z,20.27
2023-01-25T11:43:57.582Z,20.20
2023-01-25T11:46:50.060Z,19.05
2023-01-25T11:49:44.460Z,18.17
2023-01-25T11:52:28.939Z,17.17
2023-01-25T11:55:06.835Z,18.17
2023-01-25T11:57:43.365Z,16.88
2023-01-25T12:03:18.458Z,15.43
2023-01-25T12:06:03.684Z,15.23
2023-01-25T12:08:42.502Z,12.90
2023-01-25T12:11:42.081Z,12.13
2023-01-25T12:14:25.664Z,12.93
2023-01-25T12:17:24.062Z,11.75
2023-01-25T12:19:57.341Z,12.60
2023-01-25T12:22:49.007Z,11.68
2023-01-25T12:25:41.147Z,9.70
2023-01-25T12:28:31.312Z,9.65
2023-01-25T12:31:10.966Z,11.30
2023-01-25T12:33:53.843Z,10.38
2023-01-25T12:36:43.116Z,10.38
2023-01-25T12:39:20.675Z,10.43
2023-01-25T12:41:51.921Z,10.13
2023-01-25T12:44:21.187Z,10.23
2023-01-25T12:47:20.711Z,10.73
2023-01-25T12:49:50.807Z,14.15
2023-01-25T12:52:24.022Z,12.18
2023-01-25T12:54:55.262Z,15.70
2023-01-25T12:57:29.953Z,14.65
2023-01-25T13:00:23.587Z,14.18
2023-01-25T13:03:01.532Z,17.30
2023-01-25T13:05:40.176Z,15.95
2023-01-25T13:08:30.079Z,18.40
2023-01-25T13:11:13.972Z,20.73
2023-01-25T13:13:41.399Z,23.55
2023-01-25T13:16:30.679Z,26.10
2023-01-25T13:18:59.003Z,26.63
2023-01-25T13:21:45.078Z,27.65
2023-01-25T13:24:24.426Z,25.70
2023-01-25T13:26:54.522Z,23.17
2023-01-25T13:29:38.195Z,20.23
2023-01-25T13:32:24.756Z,19.20
2023-01-25T13:34:55.062Z,14.00
2023-01-25T13:37:26.385Z,19.60
2023-01-25T13:40:10.309Z,19.70
2023-01-25T13:42:39.548Z,19.98
2023-01-25T13:45:18.582Z,20.13
2023-01-25T13:48:19.758Z,13.82
2023-01-25T13:50:47.156Z,15.45
2023-01-25T13:53:14.511Z,16.83
2023-01-25T13:55:51.028Z,19.83
2023-01-25T13:58:44.835Z,13.20
2023-01-25T14:01:18.814Z,19.02
2023-01-25T14:03:49.180Z,20.40
2023-01-25T14:06:19.741Z,15.95
2023-01-25T14:08:48.894Z,17.15
2023-01-25T14:11:21.648Z,19.55
2023-01-25T14:14:03.931Z,18.05
2023-01-25T14:16:32.391Z,13.60
2023-01-25T14:19:22.620Z,20.33
2023-01-25T14:21:50.565Z,23.38
2023-01-25T14:24:19.339Z,23.00
2023-01-25T14:26:47.601Z,23.75
2023-01-25T14:29:36.456Z,25.00
2023-01-25T14:32:04.361Z,25.48
2023-01-25T14:34:31.733Z,26.67
2023-01-25T14:37:13.716Z,22.63
2023-01-25T14:39:41.064Z,25.10
2023-01-25T14:42:08.574Z,18.88
2023-01-25T14:44:36.307Z,24.85
2023-01-25T14:47:26.724Z,25.02
2023-01-25T14:49:54.008Z,19.55
2023-01-25T14:52:27.321Z,20.83
2023-01-25T14:54:56.287Z,25.13
2023-01-25T14:57:38.946Z,25.70
2023-01-25T15:00:45.148Z,26.08
2023-01-25T15:03:16.771Z,27.35
2023-01-25T15:05:48.350Z,25.67
2023-01-25T15:08:28.298Z,24.55
2023-01-25T15:10:57.653Z,24.60
2023-01-25T15:13:28.557Z,24.25
2023-01-25T15:16:01.075Z,24.60
2023-01-25T15:18:43.466Z,24.20
2023-01-25T15:21:13.602Z,19.23
2023-01-25T15:23:43.185Z,18.83
2023-01-25T15:26:24.963Z,20.80
2023-01-25T15:28:55.371Z,17.08
2023-01-25T15:31:29.194Z,22.98
2023-01-25T15:33:57.804Z,20.73
2023-01-25T15:36:25.527Z,23.80
2023-01-25T15:38:52.852Z,25.70
2023-01-25T15:41:20.694Z,24.10
2023-01-25T15:43:49.064Z,21.98
2023-01-25T15:46:28.499Z,20.70
2023-01-25T15:48:56.260Z,25.85
2023-01-25T15:51:23.711Z,28.80
2023-01-25T15:53:51.543Z,25.30
2023-01-25T15:56:20.934Z,22.35
2023-01-25T15:58:52.052Z,20.92
2023-01-25T16:01:19.874Z,21.70
2023-01-25T16:03:47.210Z,24.50
2023-01-25T16:06:37.515Z,22.45
2023-01-25T16:09:17.361Z,24.60
2023-01-25T16:11:45.835Z,22.75
2023-01-25T16:14:13.272Z,26.40
2023-01-25T16:16:47.371Z,24.33
2023-01-25T16:19:16.687Z,24.48
2023-01-25T16:21:44.375Z,21.20
2023-01-25T16:24:12.270Z,24.65
2023-01-25T16:26:50.467Z,25.65
2023-01-25T16:29:18.311Z,23.85
2023-01-25T16:31:45.707Z,17.48
2023-01-25T16:34:13.225Z,19.40
2023-01-25T16:36:40.702Z,17.13
2023-01-25T16:39:25.440Z,21.23
2023-01-25T16:41:53.654Z,20.77
2023-01-25T16:44:21.026Z,23.42
2023-01-25T16:46:50.056Z,19.10
2023-01-25T16:49:22.172Z,19.75
2023-01-25T16:51:50.501Z,13.98
2023-01-25T16:54:19.969Z,19.35
2023-01-25T16:56:48.544Z,17.65
2023-01-25T16:59:16.750Z,17.20
2023-01-25T17:01:44.867Z,14.25
2023-01-25T17:04:12.940Z,17.42
2023-01-25T17:06:46.397Z,19.58
2023-01-25T17:09:23.408Z,17.52
2023-01-25T17:11:53.217Z,25.45
2023-01-25T17:14:21.753Z,21.70
2023-01-25T17:16:51.609Z,21.48
2023-01-25T17:19:20.301Z,18.25
2023-01-25T17:21:47.915Z,18.35
2023-01-25T17:24:18.809Z,37.50
2023-01-25T17:26:46.421Z,23.40
2023-01-25T17:29:14.001Z,30.88
2023-01-25T17:31:44.019Z,28.40
2023-01-25T17:34:16.240Z,21.67
2023-01-25T17:36:44.927Z,23.75
2023-01-25T17:39:15.357Z,19.92
2023-01-25T17:41:48.203Z,21.13
2023-01-25T17:44:22.679Z,27.42
2023-01-25T17:46:50.408Z,30.63
2023-01-25T17:49:18.449Z,31.40
2023-01-25T17:51:45.842Z,32.40
2023-01-25T17:54:13.380Z,19.25
2023-01-25T17:56:41.158Z,33.80
2023-01-25T17:59:09.451Z,26.38
2023-01-25T18:01:37.256Z,38.95
2023-01-25T18:04:08.578Z,34.40
2023-01-25T18:06:36.749Z,16.67
2023-01-25T18:09:08.427Z,24.73
2023-01-25T18:11:37.483Z,32.88
2023-01-25T18:14:09.604Z,22.58
2023-01-25T18:16:39.108Z,26.38
2023-01-25T18:19:07.643Z,28.70
2023-01-25T18:21:35.655Z,39.25
2023-01-25T18:24:31.459Z,46.03
2023-01-25T18:27:07.896Z,34.53
2023-01-25T18:29:59.194Z,35.40
2023-01-25T18:32:27.031Z,31.88
2023-01-25T18:34:54.418Z,32.50
2023-01-25T18:37:23.303Z,31.98
2023-01-25T18:39:52.876Z,28.52
2023-01-25T18:42:21.885Z,29.55
2023-01-25T18:44:49.292Z,28.08
2023-01-25T18:47:18.893Z,35.22
2023-01-25T18:49:51.687Z,32.33
2023-01-25T18:52:21.160Z,26.92
2023-01-25T18:54:48.855Z,26.75
2023-01-25T18:57:16.641Z,36.70
2023-01-25T18:59:44.411Z,28.90
2023-01-25T19:02:16.465Z,29.55
2023-01-25T19:04:44.261Z,35.72
2023-01-25T19:07:12.187Z,28.50
2023-01-25T19:09:39.603Z,35.38
2023-01-25T19:12:07.176Z,36.30
2023-01-25T19:14:34.443Z,30.25
2023-01-25T19:17:01.868Z,30.33
2023-01-25T19:19:32.155Z,26.70
2023-01-25T19:22:00.587Z,59.75
2023-01-25T19:24:28.121Z,46.15
2023-01-25T19:26:55.789Z,39.92
2023-01-25T19:29:23.134Z,40.53
2023-01-25T19:31:50.611Z,32.20
2023-01-25T19:34:18.077Z,25.83
2023-01-25T19:36:49.983Z,28.92
2023-01-25T19:39:17.672Z,25.98
2023-01-25T19:41:45.497Z,26.17
2023-01-25T19:44:14.301Z,25.13
2023-01-25T19:46:41.725Z,25.80
2023-01-25T19:49:13.152Z,25.92
2023-01-25T19:51:44.220Z,25.05
2023-01-25T19:54:17.169Z,26.55
2023-01-25T19:56:46.884Z,26.63
2023-01-25T19:59:17.281Z,31.35
2023-01-25T20:01:46.342Z,26.33
2023-01-25T20:04:21.858Z,26.52
2023-01-25T20:06:50.255Z,26.40
2023-01-25T20:09:19.703Z,29.50
2023-01-25T20:11:47.497Z,29.92
2023-01-25T20:14:15.487Z,30.35
2023-01-25T20:16:43.176Z,29.10
2023-01-25T20:19:13.224Z,31.20
2023-01-25T20:21:40.567Z,34.05
2023-01-25T20:24:10.168Z,30.83
2023-01-25T20:26:39.879Z,32.15
2023-01-25T20:29:08.128Z,30.83
2023-01-25T20:31:54.163Z,28.70
2023-01-25T20:34:23.242Z,28.65
2023-01-25T20:36:51.512Z,29.42
2023-01-25T20:39:21.140Z,30.48
2023-01-25T20:41:51.800Z,29.92
2023-01-25T20:44:19.791Z,29.95
2023-01-25T20:46:47.142Z,31.70
2023-01-25T20:49:16.657Z,29.02
2023-01-25T20:51:44.768Z,29.42
2023-01-25T20:54:12.210Z,30.90
2023-01-25T20:56:39.763Z,26.83
2023-01-25T20:59:07.241Z,30.83
2023-01-25T21:01:36.859Z,32.08
2023-01-25T21:04:06.494Z,30.40
2023-01-25T21:06:35.602Z,31.20
2023-01-25T21:09:04.403Z,31.58
2023-01-25T21:11:32.419Z,31.45
2023-01-25T21:13:59.816Z,30.40
2023-01-25T21:16:27.612Z,31.70
2023-01-25T21:19:00.231Z,31.02
2023-01-25T21:21:29.608Z,28.00
2023-01-25T21:23:59.934Z,30.50
2023-01-25T21:26:32.529Z,29.67
2023-01-25T21:29:01.722Z,31.70
2023-01-25T21:31:32.777Z,28.85
2023-01-25T21:34:01.685Z,30.25
2023-01-25T21:36:29.352Z,29.75
2023-01-25T21:38:56.771Z,32.13
2023-01-25T21:41:29.851Z,32.53
2023-01-25T21:44:17.852Z,32.00
2023-01-25T21:47:04.214Z,28.60
2023-01-25T21:50:11.820Z,32.92
2023-01-25T21:52:39.344Z,32.88
2023-01-25T21:55:07.277Z,31.52
2023-01-25T21:57:35.519Z,33.78
2023-01-25T22:00:04.353Z,34.70
2023-01-25T22:02:32.136Z,31.67
2023-01-25T22:04:59.489Z,30.35
2023-01-25T22:07:26.788Z,31.92
2023-01-25T22:09:54.044Z,27.70
2023-01-25T22:12:21.355Z,23.95
2023-01-25T22:14:49.094Z,22.77
2023-01-25T22:17:16.286Z,24.80
2023-01-25T22:19:43.627Z,23.35
2023-01-25T22:22:11.195Z,24.38
2023-01-25T22:24:38.533Z,23.73
2023-01-25T22:27:08.629Z,20.40
2023-01-25T22:29:36.021Z,19.77
2023-01-25T22:32:04.121Z,19.98
2023-01-25T22:34:31.518Z,17.55
2023-01-25T22:36:58.914Z,16.95
2023-01-25T22:39:26.215Z,18.17
2023-01-25T22:41:53.522Z,17.77
2023-01-25T22:44:21.190Z,15.32
2023-01-25T22:46:50.555Z,15.45
2023-01-25T22:49:17.966Z,17.35
2023-01-25T22:51:45.309Z,14.82
2023-01-25T22:54:12.609Z,15.38
2023-01-25T22:56:40.252Z,14.90
2023-01-25T22:59:10.036Z,13.13
2023-01-25T23:01:37.669Z,12.35
2023-01-25T23:04:05.081Z,10.70
2023-01-25T23:06:34.326Z,8.70
2023-01-25T23:09:04.649Z,8.35
2023-01-25T23:11:37.933Z,8.85
2023-01-25T23:14:25.756Z,8.57
2023-01-25T23:19:20.243Z,7.75
2023-01-25T23:21:47.579Z,6.70
2023-01-25T23:24:14.844Z,7.95
2023-01-25T23:26:46.225Z,6.82
2023-01-25T23:29:14.489Z,4.68
2023-01-25T23:31:42.203Z,6.15
2023-01-25T23:34:11.598Z,8.35
2023-01-25T23:36:39.625Z,5.93
2023-01-25T23:39:07.047Z,5.22
2023-01-25T23:41:34.371Z,6.50
2023-01-25T23:44:01.930Z,5.43
2023-01-25T23:46:29.406Z,5.10
2023-01-25T23:48:56.915Z,4.78
2023-01-25T23:51:24.240Z,4.80
2023-01-25T23:53:53.484Z,4.53
2023-01-25T23:56:22.430Z,4.57
2023-01-25T23:58:50.205Z,5.75
